Flight Track Log - Related Links

Times and Time Zones

All times are in EDT time to prevent confusion due to time zone crossing. See the UPS1216 flight status page for this flight to view local times or setup timezone preferences in your user account.

Time Position Orientation Groundspeed Altitude Reporting Facility
EDT Latitude Longitude Course Direction KTS MPH feet Rate Location/Type
Tue 04:06:32 AM 42.2000 -89.0890 66° East 159 183 1,700  Level FlightAware ADS-B
Tue 04:07:02 AM 42.2030 -89.0570 83° East 192 221 2,800 2,600 Climbing FlightAware ADS-B
Tue 04:07:32 AM 42.2040 -89.0190 88° East 206 237 4,300 2,400 Climbing FlightAware ADS-B
Tue 04:07:57 AM 42.2040 -88.9850 90° East 243 280 5,000 1,800 Climbing FlightAware ADS-B
Tue 04:08:12 AM 42.2040 -88.9590 90° East 262 302 5,500 2,850 Climbing FlightAware ADS-B
Tue 04:08:37 AM 42.2040 -88.9170 90° East 268 308 6,900 3,000 Climbing FlightAware ADS-B
Tue 04:08:52 AM 42.2050 -88.8920 87° East 271 312 7,500 2,133 Climbing FlightAware ADS-B
Tue 04:09:22 AM 42.2070 -88.8410 87° East 283 326 8,500 2,657 Climbing FlightAware ADS-B
Tue 04:10:02 AM 42.2090 -88.7690 88° East 295 339 10,600 2,259 Climbing FlightAware ADS-B
Tue 04:10:47 AM 42.2100 -88.6750 89° East 347 399 11,700 1,976 Climbing FlightAware ADS-B
Tue 04:11:27 AM 42.2120 -88.5870 88° East 362 417 13,400 2,329 Climbing FlightAware ADS-B
Tue 04:12:12 AM 42.2140 -88.4860 88° East 373 429 15,000 2,329 Climbing FlightAware ADS-B
Tue 04:12:52 AM 42.2160 -88.3920 88° East 381 438 16,700 2,325 Climbing FlightAware ADS-B
Tue 04:13:32 AM 42.2180 -88.2970 88° East 392 451 18,100 2,047 Climbing FlightAware ADS-B
Tue 04:14:17 AM 42.2200 -88.1810 89° East 406 467 19,600 2,047 Climbing FlightAware ADS-B
Tue 04:14:57 AM 42.2220 -88.0820 88° East 412 474 21,000 1,976 Climbing FlightAware ADS-B
Tue 04:15:42 AM 42.2210 -87.9630 91° East 419 482 22,400 1,835 Climbing FlightAware ADS-B
Tue 04:16:22 AM 42.1950 -87.8660 110° East 421 484 23,600 1,765 Climbing FlightAware ADS-B
Tue 04:17:07 AM 42.1530 -87.7590 118° Southeast 427 491 24,900 1,624 Climbing FlightAware ADS-B
Tue 04:17:47 AM 42.1190 -87.6610 115° Southeast 434 499 25,900 1,553 Climbing FlightAware ADS-B
Tue 04:18:32 AM 42.0800 -87.5520 116° Southeast 438 504 27,100 1,553 Climbing FlightAware ADS-B
Tue 04:19:12 AM 42.0450 -87.4540 116° Southeast 439 505 28,100 1,425 Climbing FlightAware ADS-B
Tue 04:19:52 AM 42.0100 -87.3540 115° Southeast 443 510 29,000 1,271 Climbing FlightAware ADS-B
Tue 04:20:37 AM 41.9690 -87.2390 116° Southeast 447 514 29,900 1,200 Climbing FlightAware ADS-B
Tue 04:21:17 AM 41.9340 -87.1410 116° Southeast 448 516 30,700 1,500 Climbing FlightAware ADS-B
Tue 04:21:57 AM 41.8970 -87.0410 116° Southeast 441 507 31,900 1,694 Climbing FlightAware ADS-B
Tue 04:22:42 AM 41.8580 -86.9340 116° Southeast 434 499 33,100 1,412 Climbing FlightAware ADS-B
Tue 04:23:22 AM 41.8230 -86.8360 116° Southeast 433 498 33,900 675 Climbing FlightAware ADS-B
Tue 04:24:02 AM 41.7890 -86.7410 116° Southeast 429 494 34,000 71 Climbing FlightAware ADS-B
Tue 04:24:47 AM 41.7480 -86.6290 116° Southeast 429 494 34,000  Level FlightAware ADS-B
Tue 04:25:32 AM 41.7090 -86.5240 116° Southeast 426 490 34,000  Level FlightAware ADS-B
Tue 04:26:12 AM 41.6730 -86.4260 116° Southeast 428 493 34,000  Level FlightAware ADS-B
Tue 04:26:52 AM 41.6390 -86.3340 116° Southeast 430 495 34,000  Level FlightAware ADS-B
Tue 04:27:37 AM 41.5970 -86.2200 116° Southeast 431 496 34,000  Level FlightAware ADS-B
Tue 04:28:17 AM 41.5620 -86.1280 117° Southeast 432 497 34,000  Level FlightAware ADS-B
Tue 04:28:57 AM 41.5280 -86.0300 115° Southeast 431 496 34,000 635 Level FlightAware ADS-B
Tue 04:29:42 AM 41.5050 -85.9130 105° East 425 489 34,900 1,275 Climbing FlightAware ADS-B
Tue 04:30:17 AM 41.4890 -85.8230 103° East 421 484 35,700 1,341 Climbing FlightAware ADS-B
Tue 04:31:07 AM 41.4680 -85.7040 103° East 417 480 36,800 867 Climbing FlightAware ADS-B
Tue 04:31:47 AM 41.4500 -85.6020 103° East 411 473 37,000 141 Climbing FlightAware ADS-B
Tue 04:32:32 AM 41.4290 -85.4850 103° East 419 482 37,000  Level FlightAware ADS-B
Tue 04:33:12 AM 41.4110 -85.3880 104° East 422 486 37,000  Level FlightAware ADS-B
Tue 04:33:52 AM 41.3930 -85.2850 103° East 422 486 37,000  Level FlightAware ADS-B
Tue 04:34:37 AM 41.3720 -85.1720 104° East 423 487 37,000  Level FlightAware ADS-B
Tue 04:35:17 AM 41.3540 -85.0710 103° East 423 487 37,000  Level FlightAware ADS-B
Tue 04:36:02 AM 41.3330 -84.9590 104° East 423 487 37,000  Level FlightAware ADS-B
Tue 04:36:42 AM 41.3140 -84.8550 104° East 422 486 37,000  Level FlightAware ADS-B
Tue 04:37:27 AM 41.2930 -84.7410 104° East 421 484 37,000  Level FlightAware ADS-B
Tue 04:38:07 AM 41.2740 -84.6420 104° East 422 486 37,000  Level FlightAware ADS-B
Tue 04:38:47 AM 41.2570 -84.5450 103° East 425 489 37,000  Level FlightAware ADS-B
Tue 04:39:32 AM 41.2320 -84.4210 105° East 431 496 37,000  Level FlightAware ADS-B
Tue 04:40:12 AM 41.2070 -84.3220 109° East 429 494 37,000  Level FlightAware ADS-B
Tue 04:40:57 AM 41.1760 -84.2140 111° Southeast 432 497 37,000  Level FlightAware ADS-B
Tue 04:41:37 AM 41.1470 -84.1130 111° Southeast 433 498 37,000  Level FlightAware ADS-B
Tue 04:42:17 AM 41.1180 -84.0130 111° Southeast 435 501 37,000  Level FlightAware ADS-B
Tue 04:43:02 AM 41.0840 -83.8990 112° Southeast 437 503 37,000  Level FlightAware ADS-B
Tue 04:43:42 AM 41.0540 -83.7970 111° Southeast 439 505 37,000  Level FlightAware ADS-B
Tue 04:44:22 AM 41.0250 -83.6980 111° Southeast 441 507 37,000  Level FlightAware ADS-B
Tue 04:45:07 AM 40.9920 -83.5870 111° Southeast 444 511 37,000  Level FlightAware ADS-B
Tue 04:45:47 AM 40.9610 -83.4840 112° Southeast 444 511 37,000  Level FlightAware ADS-B
Tue 04:46:32 AM 40.9280 -83.3750 112° Southeast 443 510 37,000  Level FlightAware ADS-B
Tue 04:47:12 AM 40.8970 -83.2690 111° Southeast 444 511 37,000  Level FlightAware ADS-B
Tue 04:47:57 AM 40.8640 -83.1610 112° Southeast 441 507 37,000  Level FlightAware ADS-B
Tue 04:48:37 AM 40.8330 -83.0570 111° Southeast 440 506 37,000  Level FlightAware ADS-B
Tue 04:49:17 AM 40.8020 -82.9570 112° Southeast 441 507 37,000  Level FlightAware ADS-B
Tue 04:49:57 AM 40.7740 -82.8650 112° Southeast 436 502 37,000  Level FlightAware ADS-B
Tue 04:50:42 AM 40.7400 -82.7530 112° Southeast 434 499 37,000  Level FlightAware ADS-B
Tue 04:51:27 AM 40.7050 -82.6420 113° Southeast 434 499 37,000  Level FlightAware ADS-B
Tue 04:52:07 AM 40.6760 -82.5480 112° Southeast 435 501 37,000  Level FlightAware ADS-B
Tue 04:52:47 AM 40.6420 -82.4390 112° Southeast 437 503 37,000  Level FlightAware ADS-B
Tue 04:53:32 AM 40.6070 -82.3270 112° Southeast 439 505 37,000  Level FlightAware ADS-B
Tue 04:54:12 AM 40.5760 -82.2270 112° Southeast 439 505 37,000  Level FlightAware ADS-B
Tue 04:54:52 AM 40.5450 -82.1280 112° Southeast 438 504 37,000  Level FlightAware ADS-B
Tue 04:55:37 AM 40.5110 -82.0190 112° Southeast 436 502 37,000  Level FlightAware ADS-B
Tue 04:56:17 AM 40.4800 -81.9220 113° Southeast 435 501 37,000  Level FlightAware ADS-B
Tue 04:57:02 AM 40.4450 -81.8080 112° Southeast 435 501 37,000  Level FlightAware ADS-B
Tue 04:57:42 AM 40.4190 -81.7080 109° East 434 499 37,000  Level FlightAware ADS-B
Tue 04:58:22 AM 40.3940 -81.6060 108° East 433 498 37,000  Level FlightAware ADS-B
Tue 04:59:12 AM 40.3640 -81.4860 108° East 432 497 37,000  Level FlightAware ADS-B
Tue 04:59:57 AM 40.3350 -81.3690 108° East 432 497 37,000  Level FlightAware ADS-B
Tue 05:00:37 AM 40.3100 -81.2700 108° East 431 496 37,000  Level FlightAware ADS-B
Tue 05:01:22 AM 40.2820 -81.1610 109° East 426 490 37,000  Level FlightAware ADS-B
Tue 05:02:02 AM 40.2580 -81.0630 108° East 425 489 37,000  Level FlightAware ADS-B
Tue 05:02:42 AM 40.2330 -80.9660 109° East 425 489 37,000  Level FlightAware ADS-B
Tue 05:03:27 AM 40.2040 -80.8530 109° East 425 489 37,000  Level FlightAware ADS-B
Tue 05:04:07 AM 40.1790 -80.7550 108° East 425 489 37,000  Level FlightAware ADS-B
Tue 05:04:52 AM 40.1500 -80.6440 109° East 429 494 37,000  Level FlightAware ADS-B
Tue 05:05:32 AM 40.1250 -80.5500 109° East 431 496 37,000  Level FlightAware ADS-B
Tue 05:06:12 AM 40.0990 -80.4500 109° East 432 497 37,000  Level FlightAware ADS-B
Tue 05:06:57 AM 40.0700 -80.3380 109° East 433 498 37,000  Level FlightAware ADS-B
Tue 05:07:50 AM 40.0400 -80.2253 109° East 431 496 37,000 -500 Level Indianapolis Center
Tue 05:08:45 AM 39.9939 -80.1061 117° Southeast 421 484 36,100 -939 Descending Washington Center
Tue 05:09:45 AM 39.9169 -79.9875 130° Southeast 427 491 35,200 -966 Descending Washington Center
Tue 05:10:43 AM 39.8378 -79.8719 132° Southeast 427 491 34,200 -595 Descending Washington Center
Tue 05:11:46 AM 39.7431 -79.7772 142° Southeast 427 491 34,000 -347 Descending Washington Center
Tue 05:12:44 AM 39.6572 -79.6725 137° Southeast 427 491 33,500 -807 Descending Washington Center
Tue 05:13:45 AM 39.6244 -79.5250 106° East 411 473 32,400 -1,150 Descending Washington Center
Tue 05:14:44 AM 39.6025 -79.3678 100° East 416 479 31,200 -694 Descending Washington Center
Tue 05:15:46 AM 39.5767 -79.1858 100° East 445 512 31,000 -99 Descending Washington Center
Tue 05:16:45 AM 39.5544 -79.0233 100° East 457 526 31,000 -1,169 Level Washington Center
Tue 05:17:44 AM 39.5319 -78.8608 100° East 457 526 28,700 -2,898 Descending Washington Center
Tue 05:18:43 AM 39.5111 -78.7011 100° East 457 526 25,300 -3,176 Descending Washington Center
Tue 05:19:43 AM 39.4878 -78.5494 101° East 436 502 22,400 -2,850 Descending Washington Center
Tue 05:20:43 AM 39.4683 -78.4061 100° East 419 482 19,600 -2,876 Descending Washington Center
Tue 05:21:44 AM 39.4464 -78.2656 101° East 413 475 16,600 -1,381 Descending Washington Center
Tue 05:27:27 AM 39.3290 -77.6010 101° East 279 321 10,300 -1,126 Descending FlightAware ADS-B
Tue 05:27:57 AM 39.3190 -77.5500 104° East 276 318 9,600 -1,418 Descending FlightAware ADS-B
Tue 05:28:22 AM 39.3110 -77.5130 106° East 272 313 9,000 -1,200 Descending FlightAware ADS-B
Tue 05:28:42 AM 39.3060 -77.4880 104° East 270 311 8,700 -1,200 Descending FlightAware ADS-B
Tue 05:29:12 AM 39.2970 -77.4440 105° East 265 305 8,000 -1,300 Descending FlightAware ADS-B
Tue 05:29:42 AM 39.2890 -77.4030 104° East 263 303 7,400 -1,309 Descending FlightAware ADS-B
Tue 05:30:07 AM 39.2800 -77.3570 104° East 259 298 6,800 -1,200 Descending FlightAware ADS-B
Tue 05:30:32 AM 39.2730 -77.3220 104° East 250 288 6,400 -1,100 Descending FlightAware ADS-B
Tue 05:31:07 AM 39.2620 -77.2690 105° East 243 280 5,700 -1,292 Descending FlightAware ADS-B
Tue 05:31:37 AM 39.2530 -77.2250 105° East 240 276 5,000 -1,100 Descending FlightAware ADS-B
Tue 05:32:07 AM 39.2460 -77.1920 105° East 238 274 4,600 -1,200 Descending FlightAware ADS-B
Tue 05:32:22 AM 39.2410 -77.1650 103° East 237 273 4,100 -1,050 Descending FlightAware ADS-B
Tue 05:32:47 AM 39.2350 -77.1360 105° East 235 270 3,900 -240 Descending FlightAware ADS-B
Tue 05:33:12 AM 39.2270 -77.0990 106° East 236 272 3,900  Level FlightAware ADS-B
Tue 05:33:47 AM 39.2180 -77.0540 104° East 219 252 3,900 -240 Level FlightAware ADS-B
Tue 05:34:02 AM 39.2140 -77.0350 105° East 217 250 3,700 -1,050 Descending FlightAware ADS-B
Tue 05:34:27 AM 39.2080 -77.0040 104° East 217 250 3,200 -1,080 Descending FlightAware ADS-B
Tue 05:34:52 AM 39.2010 -76.9740 107° East 215 247 2,800 -655 Descending FlightAware ADS-B
Tue 05:35:22 AM 39.1940 -76.9360 103° East 198 228 2,600 -327 Descending FlightAware ADS-B
Tue 05:35:47 AM 39.1890 -76.9130 106° East 189 217 2,500 -267 Descending FlightAware ADS-B
Tue 05:36:07 AM 39.1860 -76.8890 99° East 177 204 2,400 -200 Descending FlightAware ADS-B
Tue 05:36:17 AM 39.1850 -76.8740 95° East 165 190 2,400  Level FlightAware ADS-B
Tue 05:36:37 AM 39.1840 -76.8600 95° East 151 174 2,400 -200 Level FlightAware ADS-B
Tue 05:37:17 AM 39.1830 -76.8310 93° East 107 123 2,200 -369 Descending FlightAware ADS-B
Tue 05:37:42 AM 39.1820 -76.8150 95° East 99 114 2,000 -545 Descending FlightAware ADS-B
Tue 05:38:12 AM 39.1810 -76.7970 94° East 101 116 1,700 -514 Descending FlightAware ADS-B
Tue 05:38:52 AM 39.1800 -76.7750 93° East 102 117 1,400 -277 Descending FlightAware ADS-B
Tue 05:39:17 AM 39.1790 -76.7610 95° East 102 117 1,400 -558 Level FlightAware ADS-B
Tue 05:39:35 AM 39.1833 -76.7500 95° East 105 121 1,000 -692 Descending Potomac TRACON
Tue 05:40:35 AM 39.1833 -76.7000 90° East 109 125 500 -500 Descending Potomac TRACON
Tue 05:42:00 AM 39.1667 -76.6667 142° Southeast  Level FlightAware Approximate
Tue 05:49:00 AM 39.1754 -76.6683 142° Southeast  Level Estimated
Tue 05:50:00 AM 39.1754 -76.6683 142° Southeast  Level Estimated
Tue 05:51:00 AM 39.1754 -76.6683 142° Southeast  Level Estimated
Tue 05:52:00 AM 39.1754 -76.6683 142° Southeast  Level Estimated
Tue 05:53:00 AM 39.1754 -76.6683 142° Southeast  Level Estimated

Login

Don't have an account? Register now (free) for customized features, flight alerts, and more!